Time;durP1;ratioP1;P1;durP2;ratioP2;P2;SDS_P1;SDS_P2;PMS_P1;PMS_P2;Temp;Humidity;BMP_temperature;BMP_pressure;BME280_temperature;BME280_humidity;BME280_pressure;Samples;Min_cycle;Max_cycle;Signal;HPM_P1;HPM_P2
2022/01/04 00:02:13;;;;;;;24.42;8.95;;;8.20;99.90;;;;;;5055478;28;20528;-75
2022/01/04 00:04:39;;;;;;;24.63;8.50;;;8.20;99.90;;;;;;5055769;28;20055;-75
2022/01/04 00:07:05;;;;;;;27.50;9.05;;;8.20;99.90;;;;;;5055784;28;20047;-75
2022/01/04 00:09:40;;;;;;;25.05;9.48;;;8.20;99.90;;;;;;5055272;28;20409;-75
2022/01/04 00:14:52;;;;;;;28.10;8.52;;;8.20;99.90;;;;;;5055374;28;20448;-75
2022/01/04 00:17:18;;;;;;;33.08;8.85;;;8.20;99.90;;;;;;5055326;28;20028;-75
2022/01/04 00:19:43;;;;;;;27.38;9.27;;;8.20;99.90;;;;;;5055491;28;20544;-75
2022/01/04 00:22:09;;;;;;;32.13;10.13;;;8.20;99.90;;;;;;5055597;28;20036;-75
2022/01/04 00:24:36;;;;;;;33.53;8.57;;;8.20;99.90;;;;;;5055273;28;20041;-75
2022/01/04 00:27:01;;;;;;;24.90;8.05;;;8.20;99.90;;;;;;5055260;28;20041;-74
2022/01/04 00:29:28;;;;;;;28.70;8.32;;;8.20;99.90;;;;;;5055496;28;20416;-75
2022/01/04 00:31:54;;;;;;;28.95;8.13;;;8.20;99.90;;;;;;5038396;28;20500;-75
2022/01/04 00:34:19;;;;;;;28.13;7.88;;;8.20;99.90;;;;;;5055405;28;20079;-75
2022/01/04 00:36:45;;;;;;;28.17;8.98;;;8.20;99.90;;;;;;5055133;28;20076;-75
2022/01/04 00:39:11;;;;;;;25.00;7.18;;;8.20;99.90;;;;;;5055049;28;20040;-75
2022/01/04 00:41:36;;;;;;;25.67;8.15;;;8.20;99.90;;;;;;5055097;28;20037;-75
2022/01/04 00:44:02;;;;;;;24.33;8.13;;;8.20;99.90;;;;;;5038475;28;20039;-75
2022/01/04 00:46:28;;;;;;;31.75;7.90;;;8.20;99.90;;;;;;5038371;28;20045;-75
2022/01/04 00:49:09;;;;;;;26.40;8.20;;;8.20;99.90;;;;;;5054922;28;20430;-75
2022/01/04 00:51:35;;;;;;;27.20;7.43;;;8.20;99.90;;;;;;5054960;28;20247;-75
2022/01/04 00:54:01;;;;;;;22.20;7.90;;;8.20;99.90;;;;;;5055174;28;20075;-75
2022/01/04 00:56:27;;;;;;;26.45;7.85;;;8.20;99.90;;;;;;5038325;28;20436;-75
2022/01/04 00:58:53;;;;;;;21.60;7.22;;;8.20;99.90;;;;;;5038263;28;20037;-75
2022/01/04 01:01:19;;;;;;;28.00;8.40;;;8.20;99.90;;;;;;5038267;28;20040;-75
2022/01/04 01:03:45;;;;;;;28.75;8.15;;;8.20;99.90;;;;;;5055051;28;20406;-75
2022/01/04 01:06:10;;;;;;;24.15;8.40;;;8.20;99.90;;;;;;5054849;28;20044;-75
2022/01/04 01:08:36;;;;;;;28.40;8.02;;;8.20;99.90;;;;;;5054571;28;20066;-75
2022/01/04 01:11:02;;;;;;;28.50;8.93;;;8.20;99.90;;;;;;5038120;28;20041;-75
2022/01/04 01:13:27;;;;;;;31.30;8.35;;;8.30;99.90;;;;;;5054658;28;20033;-75
2022/01/04 01:15:53;;;;;;;34.63;9.07;;;8.20;99.90;;;;;;5054962;28;20129;-75
2022/01/04 01:18:19;;;;;;;23.20;8.73;;;8.30;99.90;;;;;;5054614;28;20497;-75
2022/01/04 01:20:49;;;;;;;28.73;8.57;;;8.30;99.90;;;;;;5038098;28;20139;-75
2022/01/04 01:23:15;;;;;;;30.20;9.43;;;8.30;99.90;;;;;;5054647;28;20040;-75
2022/01/04 01:25:40;;;;;;;38.03;9.07;;;8.30;99.90;;;;;;5054611;28;20039;-74
2022/01/04 01:28:06;;;;;;;30.98;9.40;;;8.30;99.90;;;;;;5054664;28;20453;-75
2022/01/04 01:30:35;;;;;;;26.00;9.48;;;8.30;99.90;;;;;;5054392;28;20032;-75
2022/01/04 01:33:01;;;;;;;29.50;10.88;;;8.30;99.90;;;;;;5054491;28;20054;-75
2022/01/04 01:35:30;;;;;;;32.70;10.57;;;8.20;99.90;;;;;;5054569;28;20123;-75
2022/01/04 01:37:57;;;;;;;34.25;10.07;;;8.30;99.90;;;;;;5054455;28;20036;-75
2022/01/04 01:40:23;;;;;;;29.40;9.77;;;8.20;99.90;;;;;;5038170;28;20048;-75
2022/01/04 01:42:49;;;;;;;32.72;10.15;;;8.20;99.90;;;;;;5054725;28;20033;-75
2022/01/04 01:45:16;;;;;;;34.10;11.25;;;8.20;99.90;;;;;;5038640;28;20507;-74
2022/01/04 01:47:43;;;;;;;29.63;9.88;;;8.20;99.90;;;;;;5041571;28;20044;-75
2022/01/04 01:50:11;;;;;;;25.27;10.13;;;8.20;99.90;;;;;;5058030;28;20083;-75
2022/01/04 01:52:38;;;;;;;29.23;10.60;;;8.20;99.90;;;;;;5057924;28;20070;-75
2022/01/04 01:55:05;;;;;;;28.38;10.88;;;8.20;99.90;;;;;;5058055;28;20071;-75
2022/01/04 01:57:31;;;;;;;30.90;10.77;;;8.20;99.90;;;;;;5057934;28;20047;-75
2022/01/04 01:59:57;;;;;;;27.85;10.85;;;8.10;99.90;;;;;;5057873;28;20036;-75
2022/01/04 02:02:22;;;;;;;30.70;10.52;;;8.10;99.90;;;;;;5057812;28;20508;-75
2022/01/04 02:04:48;;;;;;;29.27;10.05;;;8.10;99.90;;;;;;5057844;28;20082;-75
2022/01/04 02:07:14;;;;;;;28.52;11.20;;;8.10;99.90;;;;;;5057841;28;20048;-75
2022/01/04 02:09:43;;;;;;;34.47;12.10;;;8.10;99.90;;;;;;5040754;28;20043;-75
2022/01/04 02:12:09;;;;;;;26.98;10.07;;;8.10;99.90;;;;;;5057605;28;20052;-75
2022/01/04 02:14:35;;;;;;;29.95;10.35;;;8.20;99.90;;;;;;5057576;28;20032;-75
2022/01/04 02:17:00;;;;;;;32.17;11.65;;;8.10;99.90;;;;;;5041504;28;20043;-75
2022/01/04 02:19:26;;;;;;;34.00;12.10;;;8.10;99.90;;;;;;5057418;28;20037;-75
2022/01/04 02:21:51;;;;;;;36.03;11.02;;;8.10;99.90;;;;;;5040867;28;20127;-75
2022/01/04 02:24:17;;;;;;;29.33;11.98;;;8.10;99.90;;;;;;5057466;28;20051;-75
2022/01/04 02:26:43;;;;;;;29.77;11.15;;;8.00;99.90;;;;;;5040880;28;20045;-74
2022/01/04 02:29:08;;;;;;;31.27;12.48;;;8.00;99.90;;;;;;5040751;28;20047;-75
2022/01/04 02:31:37;;;;;;;30.88;12.00;;;8.00;99.90;;;;;;5040666;28;20127;-75
2022/01/04 02:34:02;;;;;;;34.60;12.63;;;8.00;99.90;;;;;;5040246;28;20051;-74
2022/01/04 02:36:28;;;;;;;31.67;12.65;;;8.00;99.90;;;;;;5057450;28;20032;-75
2022/01/04 02:38:53;;;;;;;35.67;12.00;;;8.00;99.90;;;;;;5057151;28;20491;-75
2022/01/04 02:41:19;;;;;;;29.52;12.20;;;8.00;99.90;;;;;;5057153;28;20044;-75
2022/01/04 02:43:45;;;;;;;36.33;13.43;;;8.00;99.90;;;;;;5057100;28;20045;-74
2022/01/04 02:46:11;;;;;;;28.65;12.43;;;8.00;99.90;;;;;;5040538;28;20036;-74
2022/01/04 02:48:44;;;;;;;30.67;12.57;;;8.00;99.90;;;;;;5056993;28;20458;-74
2022/01/04 02:51:13;;;;;;;31.85;13.30;;;8.00;99.90;;;;;;5056984;28;20033;-75
2022/01/04 02:53:38;;;;;;;34.65;12.52;;;8.00;99.90;;;;;;5056901;28;20404;-74
2022/01/04 02:56:04;;;;;;;29.98;13.52;;;8.00;99.90;;;;;;5056836;28;20033;-74
2022/01/04 02:58:30;;;;;;;36.33;13.15;;;8.00;99.90;;;;;;5055916;28;20033;-75
2022/01/04 03:00:55;;;;;;;34.08;13.10;;;8.00;99.90;;;;;;5058175;28;20362;-75
2022/01/04 03:03:21;;;;;;;31.00;13.77;;;8.00;99.90;;;;;;5056685;28;20390;-75
2022/01/04 03:05:46;;;;;;;31.75;13.93;;;8.00;99.90;;;;;;5040370;28;20032;-75
2022/01/04 03:08:12;;;;;;;29.95;12.57;;;8.00;99.90;;;;;;5056639;28;20500;-75
2022/01/04 03:10:37;;;;;;;35.70;14.10;;;8.00;99.90;;;;;;5056385;28;20158;-75
2022/01/04 03:13:05;;;;;;;30.75;15.05;;;8.00;99.90;;;;;;5056420;28;20046;-75
2022/01/04 03:15:31;;;;;;;33.80;14.00;;;8.00;99.90;;;;;;5056459;28;20036;-75
2022/01/04 03:17:57;;;;;;;34.40;14.68;;;8.00;99.90;;;;;;5056458;28;20045;-75
2022/01/04 03:20:22;;;;;;;33.63;15.20;;;8.00;99.90;;;;;;5056601;28;20219;-75
2022/01/04 03:22:48;;;;;;;28.17;14.63;;;8.10;99.90;;;;;;5056559;28;20036;-75
2022/01/04 03:25:14;;;;;;;27.75;14.63;;;8.10;99.90;;;;;;5056345;28;20040;-74
2022/01/04 03:27:39;;;;;;;36.10;15.90;;;8.10;99.90;;;;;;5056342;28;20037;-74
2022/01/04 03:30:06;;;;;;;33.03;15.70;;;8.10;99.90;;;;;;5056039;28;20089;-75
2022/01/04 03:32:31;;;;;;;30.20;16.27;;;8.10;99.90;;;;;;5056053;28;20505;-75
2022/01/04 03:34:57;;;;;;;34.03;14.77;;;8.10;99.90;;;;;;5056178;28;20044;-75
2022/01/04 03:37:22;;;;;;;35.92;16.17;;;8.10;99.90;;;;;;5056400;28;20185;-75
2022/01/04 03:39:48;;;;;;;34.42;15.50;;;8.10;99.90;;;;;;5039343;28;20037;-75
2022/01/04 03:42:14;;;;;;;38.17;14.95;;;8.10;99.90;;;;;;5055952;28;20048;-75
2022/01/04 03:44:39;;;;;;;33.10;15.10;;;8.10;99.90;;;;;;5056199;28;20050;-75
2022/01/04 03:47:05;;;;;;;36.78;15.45;;;8.10;99.90;;;;;;5056095;28;20115;-75
2022/01/04 03:49:31;;;;;;;39.05;15.40;;;8.10;99.90;;;;;;5056054;28;20174;-75
2022/01/04 03:51:56;;;;;;;36.15;14.48;;;8.10;99.90;;;;;;5055700;28;20043;-75
2022/01/04 03:54:22;;;;;;;31.98;15.18;;;8.10;99.90;;;;;;5039118;28;20040;-75
2022/01/04 03:56:48;;;;;;;40.53;14.88;;;8.10;99.90;;;;;;5039054;28;20081;-74
2022/01/04 03:59:14;;;;;;;37.13;14.75;;;8.20;99.90;;;;;;5039780;28;20439;-74
2022/01/04 04:01:40;;;;;;;36.25;14.98;;;8.20;99.90;;;;;;5055813;28;20493;-75
2022/01/04 04:04:06;;;;;;;37.45;17.17;;;8.20;99.90;;;;;;5055846;28;20072;-75
2022/01/04 04:06:32;;;;;;;32.40;15.00;;;8.20;99.90;;;;;;5055553;28;20044;-75
2022/01/04 04:08:57;;;;;;;32.20;15.18;;;8.20;99.90;;;;;;5055048;28;20036;-75
2022/01/04 04:11:24;;;;;;;37.95;15.05;;;8.20;99.90;;;;;;5038940;28;20075;-75
2022/01/04 04:13:50;;;;;;;32.58;14.98;;;8.30;99.90;;;;;;5055435;28;20068;-75
2022/01/04 04:16:16;;;;;;;31.25;15.20;;;8.20;99.90;;;;;;5055412;28;20079;-75
2022/01/04 04:18:42;;;;;;;35.15;15.45;;;8.30;99.90;;;;;;5055559;28;20074;-75
2022/01/04 04:21:07;;;;;;;37.05;15.15;;;8.30;99.90;;;;;;5038706;28;20032;-74
2022/01/04 04:23:33;;;;;;;34.80;14.70;;;8.30;99.90;;;;;;5055334;28;20044;-74
2022/01/04 04:26:00;;;;;;;27.20;14.82;;;8.30;99.90;;;;;;5055289;28;20404;-75
2022/01/04 04:28:26;;;;;;;29.20;15.38;;;8.30;99.90;;;;;;5055422;28;20260;-75
2022/01/04 04:30:51;;;;;;;35.63;14.63;;;8.30;99.90;;;;;;5055361;28;20442;-75
2022/01/04 04:33:17;;;;;;;34.70;14.23;;;8.30;99.90;;;;;;5055508;28;20557;-75
2022/01/04 04:35:43;;;;;;;39.05;15.73;;;8.30;99.90;;;;;;5038612;28;20476;-75
2022/01/04 04:38:08;;;;;;;34.17;15.52;;;8.30;99.90;;;;;;5055301;28;20123;-75
2022/01/04 04:40:34;;;;;;;38.08;16.42;;;8.30;99.90;;;;;;5055013;28;20499;-75
2022/01/04 04:43:00;;;;;;;33.20;16.25;;;8.30;99.90;;;;;;5038498;28;20041;-75
2022/01/04 04:45:26;;;;;;;35.65;16.42;;;8.30;99.90;;;;;;5054995;28;20041;-75
2022/01/04 04:47:52;;;;;;;35.30;16.23;;;8.30;99.90;;;;;;5055290;28;20032;-75
2022/01/04 04:50:17;;;;;;;43.90;16.73;;;8.20;99.90;;;;;;5054862;28;20447;-75
2022/01/04 04:52:43;;;;;;;32.88;15.65;;;8.30;99.90;;;;;;5054858;28;20124;-75
2022/01/04 04:55:09;;;;;;;41.47;16.73;;;8.20;99.90;;;;;;5054889;28;20453;-75
2022/01/04 04:57:35;;;;;;;33.08;15.73;;;8.20;99.90;;;;;;5054986;28;20033;-75
2022/01/04 05:00:00;;;;;;;32.67;15.93;;;8.20;99.90;;;;;;5055336;28;20047;-75
2022/01/04 05:02:26;;;;;;;35.25;17.23;;;8.20;99.90;;;;;;5054839;28;20509;-75
2022/01/04 05:04:52;;;;;;;33.55;17.17;;;8.20;99.90;;;;;;5038269;28;20033;-75
2022/01/04 05:07:18;;;;;;;38.30;17.55;;;8.30;99.90;;;;;;5054819;28;20063;-75
2022/01/04 05:09:43;;;;;;;40.17;17.60;;;8.30;99.90;;;;;;5054609;28;20048;-75
2022/01/04 05:12:09;;;;;;;32.17;17.33;;;8.30;99.90;;;;;;5054726;28;20037;-75
2022/01/04 05:14:37;;;;;;;37.03;17.10;;;8.30;99.90;;;;;;5054922;28;20068;-75
2022/01/04 05:17:03;;;;;;;37.75;19.23;;;8.20;99.90;;;;;;5054765;28;20524;-75
2022/01/04 05:19:29;;;;;;;34.83;18.73;;;8.20;99.90;;;;;;5054654;28;20040;-75
2022/01/04 05:21:54;;;;;;;38.10;17.67;;;8.20;99.90;;;;;;5058165;28;20043;-75
2022/01/04 05:24:20;;;;;;;32.95;17.50;;;8.10;99.90;;;;;;5058599;28;20048;-75
2022/01/04 05:26:45;;;;;;;33.72;17.42;;;8.10;99.90;;;;;;5042709;28;20094;-75
2022/01/04 05:29:11;;;;;;;33.08;15.57;;;8.10;99.90;;;;;;5058724;28;20032;-75
2022/01/04 05:31:36;;;;;;;27.08;15.93;;;8.10;99.90;;;;;;5058444;28;20516;-75
2022/01/04 05:34:02;;;;;;;33.50;16.08;;;8.00;99.90;;;;;;5058410;28;20079;-74
2022/01/04 05:36:28;;;;;;;32.05;16.00;;;8.00;99.90;;;;;;5041704;28;20041;-75
2022/01/04 05:38:53;;;;;;;35.83;15.80;;;8.00;99.90;;;;;;5058206;28;20041;-75
2022/01/04 05:41:19;;;;;;;33.28;16.80;;;8.10;99.90;;;;;;5058220;28;20040;-75
2022/01/04 05:43:46;;;;;;;32.83;16.65;;;8.00;99.90;;;;;;5058207;28;20032;-75
2022/01/04 05:46:12;;;;;;;37.45;17.45;;;8.00;99.90;;;;;;5058146;28;20048;-75
2022/01/04 05:48:37;;;;;;;36.17;17.67;;;8.00;99.90;;;;;;5058329;28;20090;-75
2022/01/04 05:51:03;;;;;;;31.38;16.83;;;8.00;99.90;;;;;;5058000;28;20471;-74
2022/01/04 05:53:30;;;;;;;37.38;17.50;;;8.10;99.90;;;;;;5058278;28;20037;-74
2022/01/04 05:55:55;;;;;;;35.15;17.10;;;8.00;99.90;;;;;;5057993;28;20497;-75
2022/01/04 05:58:21;;;;;;;36.85;17.48;;;8.10;99.90;;;;;;5057889;28;20092;-75
2022/01/04 06:00:46;;;;;;;32.88;16.98;;;8.00;99.90;;;;;;5058100;28;20032;-75
2022/01/04 06:03:12;;;;;;;40.65;17.80;;;8.00;99.90;;;;;;5057916;28;20045;-75
2022/01/04 06:05:40;;;;;;;34.30;18.00;;;8.00;99.90;;;;;;5058090;28;20051;-75
2022/01/04 06:08:06;;;;;;;36.15;18.45;;;8.00;99.90;;;;;;5057768;28;20453;-75
2022/01/04 06:10:37;;;;;;;32.60;16.70;;;8.00;99.90;;;;;;5040962;28;20085;-75
2022/01/04 06:15:29;;;;;;;37.72;18.85;;;8.00;99.90;;;;;;5057678;28;20040;-75
2022/01/04 06:17:54;;;;;;;29.02;16.98;;;8.10;99.90;;;;;;5041079;28;20040;-75
2022/01/04 06:20:21;;;;;;;35.22;18.33;;;8.00;99.90;;;;;;5057604;28;20103;-75
2022/01/04 06:22:51;;;;;;;35.67;19.15;;;8.00;99.90;;;;;;5057468;28;20036;-75
2022/01/04 06:25:22;;;;;;;35.22;16.67;;;8.00;99.90;;;;;;5057441;28;20059;-74
2022/01/04 06:27:50;;;;;;;31.83;16.83;;;8.00;99.90;;;;;;5057359;28;20500;-75
2022/01/04 06:30:17;;;;;;;33.95;16.80;;;8.10;99.90;;;;;;5057278;28;20105;-75
2022/01/04 06:32:44;;;;;;;41.13;16.85;;;8.10;99.90;;;;;;5057228;28;20098;-75
2022/01/04 06:35:10;;;;;;;33.08;16.98;;;8.00;99.90;;;;;;5057375;28;20563;-75
2022/01/04 06:37:35;;;;;;;26.55;14.90;;;8.00;99.90;;;;;;5057192;28;20511;-75
2022/01/04 06:40:02;;;;;;;27.90;15.90;;;8.00;99.90;;;;;;5057116;28;20040;-74
2022/01/04 06:42:28;;;;;;;27.77;15.60;;;8.00;99.90;;;;;;5057392;28;20128;-75
2022/01/04 06:44:53;;;;;;;31.73;16.85;;;8.00;99.90;;;;;;5040739;28;20127;-75
2022/01/04 06:47:19;;;;;;;27.90;16.75;;;8.00;99.90;;;;;;5057300;28;20396;-75
2022/01/04 06:49:45;;;;;;;30.85;17.02;;;8.00;99.90;;;;;;5057192;28;20041;-75
2022/01/04 06:52:10;;;;;;;32.08;18.67;;;8.00;99.90;;;;;;5056878;28;20048;-75
2022/01/04 06:54:36;;;;;;;32.45;18.27;;;7.90;99.90;;;;;;5057191;28;20051;-75
2022/01/04 06:57:02;;;;;;;33.13;18.88;;;8.00;99.90;;;;;;5056801;28;20036;-75
2022/01/04 06:59:28;;;;;;;31.45;19.08;;;7.90;99.90;;;;;;5056682;28;20029;-74
2022/01/04 07:01:54;;;;;;;32.58;19.30;;;7.90;99.90;;;;;;5040403;28;20040;-74
2022/01/04 07:04:19;;;;;;;33.20;19.58;;;7.90;99.90;;;;;;5056672;28;20048;-75
2022/01/04 07:06:45;;;;;;;32.60;19.17;;;7.90;99.90;;;;;;5056686;28;20042;-75
2022/01/04 07:09:10;;;;;;;36.55;20.02;;;7.90;99.90;;;;;;5056685;28;20044;-75
2022/01/04 07:11:37;;;;;;;37.40;21.40;;;7.90;99.90;;;;;;5056466;28;20131;-75
2022/01/04 07:14:03;;;;;;;39.67;22.63;;;7.90;99.90;;;;;;5056604;28;20078;-75
2022/01/04 07:16:29;;;;;;;35.45;22.65;;;7.90;99.90;;;;;;5040159;28;20072;-75
2022/01/04 07:18:55;;;;;;;37.08;23.23;;;7.90;99.90;;;;;;5056321;28;20458;-75
2022/01/04 07:21:21;;;;;;;39.67;23.92;;;7.90;99.90;;;;;;5056386;28;20037;-75
2022/01/04 07:23:48;;;;;;;39.50;23.90;;;7.90;99.90;;;;;;5056298;28;20044;-75
2022/01/04 07:26:15;;;;;;;41.50;22.85;;;7.90;99.90;;;;;;5056558;28;20045;-75
2022/01/04 07:28:42;;;;;;;30.85;20.48;;;7.90;99.90;;;;;;5056179;28;20041;-75
2022/01/04 07:31:08;;;;;;;33.00;19.30;;;7.90;99.90;;;;;;5056093;28;20036;-75
2022/01/04 07:33:34;;;;;;;25.73;18.27;;;7.90;99.90;;;;;;5056168;28;20049;-75
2022/01/04 07:36:00;;;;;;;27.27;19.02;;;8.00;99.90;;;;;;5056093;28;20036;-75
2022/01/04 07:38:26;;;;;;;24.75;16.25;;;7.90;99.90;;;;;;5056263;28;20098;-74
2022/01/04 07:40:51;;;;;;;23.17;15.63;;;8.00;99.90;;;;;;5055989;28;20485;-74
2022/01/04 07:43:17;;;;;;;22.35;15.65;;;7.90;99.90;;;;;;5055405;28;20049;-74
2022/01/04 07:45:43;;;;;;;22.27;14.48;;;7.90;99.90;;;;;;5055899;28;20036;-74
2022/01/04 07:48:10;;;;;;;23.73;14.95;;;7.90;99.90;;;;;;5039592;28;20098;-74
2022/01/04 07:50:40;;;;;;;23.60;16.42;;;7.90;99.90;;;;;;5056030;28;20055;-75
2022/01/04 07:53:07;;;;;;;29.95;18.63;;;7.90;99.90;;;;;;5039121;28;20051;-74
2022/01/04 07:55:33;;;;;;;31.27;20.58;;;7.90;99.90;;;;;;5039567;28;20037;-74
2022/01/04 07:57:59;;;;;;;34.08;21.95;;;7.90;99.90;;;;;;5055675;28;20043;-74
2022/01/04 08:00:25;;;;;;;40.40;23.83;;;7.90;99.90;;;;;;5055997;28;20048;-74
2022/01/04 08:02:51;;;;;;;39.20;23.48;;;7.90;99.90;;;;;;5039325;28;20037;-74
2022/01/04 08:05:17;;;;;;;41.42;25.10;;;7.90;99.90;;;;;;5055591;28;20087;-75
2022/01/04 08:07:43;;;;;;;44.70;25.52;;;7.90;99.90;;;;;;5039322;28;20071;-75
2022/01/04 08:10:09;;;;;;;34.55;24.17;;;7.90;99.90;;;;;;5055629;28;20496;-74
2022/01/04 08:12:38;;;;;;;43.72;23.13;;;7.90;99.90;;;;;;5055505;28;20037;-74
2022/01/04 08:15:04;;;;;;;32.53;21.55;;;7.90;99.90;;;;;;5055418;28;20038;-74
2022/01/04 08:17:31;;;;;;;37.17;21.02;;;7.90;99.90;;;;;;5038943;28;20448;-74
2022/01/04 08:19:57;;;;;;;31.23;20.88;;;7.90;99.90;;;;;;5056091;28;20079;-74
2022/01/04 08:22:23;;;;;;;30.95;21.17;;;7.90;99.90;;;;;;5055656;28;20040;-74
2022/01/04 08:24:48;;;;;;;34.88;20.40;;;7.90;99.90;;;;;;5055429;28;20036;-74
2022/01/04 08:27:14;;;;;;;31.73;19.90;;;7.90;99.90;;;;;;5038668;28;20040;-74
2022/01/04 08:29:39;;;;;;;31.75;20.17;;;7.90;99.90;;;;;;5038574;28;20048;-74
2022/01/04 08:32:05;;;;;;;29.38;20.38;;;7.90;99.90;;;;;;5055330;28;20127;-74
2022/01/04 08:34:31;;;;;;;34.22;21.17;;;7.80;99.90;;;;;;5055429;28;20480;-74
2022/01/04 08:36:56;;;;;;;30.05;20.25;;;7.90;99.90;;;;;;5055175;28;20040;-74
2022/01/04 08:39:26;;;;;;;32.47;20.75;;;7.90;99.90;;;;;;5055375;28;20185;-73
2022/01/04 08:41:54;;;;;;;35.78;21.38;;;7.90;99.90;;;;;;5055149;28;20051;-74
2022/01/04 08:44:23;;;;;;;30.52;19.27;;;7.90;99.90;;;;;;5055108;28;20119;-74
2022/01/04 08:46:50;;;;;;;14.57;5.38;;;7.90;99.90;;;;;;5038443;28;20125;-74
2022/01/04 08:49:16;;;;;;;6.88;2.58;;;7.90;99.90;;;;;;5054926;28;20041;-74
2022/01/04 08:51:42;;;;;;;8.90;2.20;;;7.80;99.90;;;;;;5055092;28;20505;-74
2022/01/04 08:54:08;;;;;;;6.03;1.60;;;7.70;99.90;;;;;;5055102;28;20097;-74
2022/01/04 08:56:34;;;;;;;9.90;2.60;;;7.60;99.90;;;;;;5041133;28;20032;-74
2022/01/04 08:59:00;;;;;;;7.85;2.03;;;7.60;99.90;;;;;;5059269;28;20043;-74
2022/01/04 09:01:26;;;;;;;7.03;2.05;;;7.50;99.90;;;;;;5059147;28;20033;-74
2022/01/04 09:03:51;;;;;;;13.48;2.72;;;7.40;99.90;;;;;;5058986;28;20040;-74
2022/01/04 09:06:19;;;;;;;13.57;2.20;;;7.30;99.90;;;;;;5059340;28;20135;-73
2022/01/04 09:08:45;;;;;;;7.38;1.83;;;7.30;99.90;;;;;;5058717;28;20045;-74
2022/01/04 09:11:11;;;;;;;11.27;2.20;;;7.40;99.90;;;;;;5058844;28;20542;-74
2022/01/04 09:13:40;;;;;;;14.65;2.13;;;7.40;99.90;;;;;;5059042;28;20123;-74
2022/01/04 09:18:49;;;;;;;10.20;2.28;;;7.40;99.90;;;;;;5058623;28;20046;-74
2022/01/04 09:21:18;;;;;;;7.32;1.77;;;7.40;99.90;;;;;;5042090;28;20047;-74
2022/01/04 09:23:45;;;;;;;10.48;2.05;;;7.40;99.90;;;;;;5058594;28;20086;-73
2022/01/04 09:26:12;;;;;;;9.35;1.77;;;7.40;99.90;;;;;;5058831;28;20041;-73
2022/01/04 09:28:39;;;;;;;9.32;2.17;;;7.40;99.90;;;;;;5058725;28;20497;-74
2022/01/04 09:31:05;;;;;;;12.65;2.33;;;7.50;99.90;;;;;;5058465;28;20072;-74
2022/01/04 09:33:31;;;;;;;12.00;2.78;;;7.50;99.90;;;;;;5058497;28;20036;-73
2022/01/04 09:35:57;;;;;;;12.80;2.78;;;7.60;99.90;;;;;;5058444;28;20044;-74
2022/01/04 09:38:23;;;;;;;13.60;2.83;;;7.60;99.90;;;;;;5058362;28;20028;-73
2022/01/04 09:40:49;;;;;;;11.40;2.85;;;7.60;99.90;;;;;;5058512;28;20044;-73
2022/01/04 09:43:17;;;;;;;17.30;3.28;;;7.70;99.90;;;;;;5058267;28;20036;-73
2022/01/04 09:45:42;;;;;;;17.83;3.50;;;7.70;99.90;;;;;;5058553;28;20043;-73
2022/01/04 09:48:08;;;;;;;19.27;3.88;;;7.70;99.90;;;;;;5058495;28;20040;-73
2022/01/04 09:50:36;;;;;;;21.50;4.63;;;7.70;99.90;;;;;;5058074;28;20543;-73
2022/01/04 09:53:06;;;;;;;16.42;4.25;;;7.70;99.90;;;;;;5058090;28;20044;-74
2022/01/04 09:55:33;;;;;;;16.95;4.25;;;7.80;99.90;;;;;;5058436;28;20032;-74
2022/01/04 09:57:58;;;;;;;16.90;4.43;;;7.70;99.90;;;;;;5058351;28;20036;-74
2022/01/04 10:00:24;;;;;;;19.13;4.55;;;7.70;99.90;;;;;;5041539;28;20385;-74
2022/01/04 10:02:50;;;;;;;15.90;5.30;;;7.70;99.90;;;;;;5057981;28;20110;-74
2022/01/04 10:05:19;;;;;;;14.63;3.58;;;7.70;99.90;;;;;;5041356;28;20097;-75
2022/01/04 10:07:47;;;;;;;14.93;5.13;;;7.70;99.90;;;;;;5057364;28;20036;-74
2022/01/04 10:10:15;;;;;;;17.25;3.70;;;7.70;99.90;;;;;;5057605;28;20041;-74
2022/01/04 10:12:51;;;;;;;17.35;2.75;;;7.70;99.90;;;;;;5057678;28;20040;-73
2022/01/04 10:15:38;;;;;;;11.05;2.67;;;7.70;99.90;;;;;;5041092;28;20047;-74
2022/01/04 10:18:25;;;;;;;5.78;1.48;;;7.60;99.90;;;;;;5057985;28;20051;-74
2022/01/04 10:21:10;;;;;;;5.80;1.42;;;7.60;99.90;;;;;;5040941;28;20040;-74
2022/01/04 10:23:48;;;;;;;5.22;1.25;;;7.60;99.90;;;;;;5057876;28;20036;-74
2022/01/04 10:26:16;;;;;;;9.25;1.13;;;7.50;99.90;;;;;;5040949;28;20040;-74
2022/01/04 10:28:44;;;;;;;6.88;1.10;;;7.50;99.90;;;;;;5057653;28;20079;-74
2022/01/04 10:31:14;;;;;;;6.05;1.00;;;7.50;99.90;;;;;;5057558;28;20090;-74
2022/01/04 10:33:39;;;;;;;8.20;1.40;;;7.40;99.90;;;;;;5041034;28;20032;-75
2022/01/04 10:36:11;;;;;;;5.28;1.10;;;7.40;99.90;;;;;;5057369;28;20035;-75
2022/01/04 10:38:38;;;;;;;5.70;0.90;;;7.40;99.90;;;;;;5057369;28;20412;-74
2022/01/04 10:41:10;;;;;;;8.50;0.90;;;7.40;99.90;;;;;;5058410;28;20083;-74
2022/01/04 10:43:48;;;;;;;6.20;1.17;;;7.40;99.90;;;;;;5057540;28;20068;-74
2022/01/04 10:46:16;;;;;;;4.32;0.95;;;7.40;99.90;;;;;;5057133;28;20093;-74
2022/01/04 10:48:44;;;;;;;4.95;1.00;;;7.40;99.90;;;;;;5040406;28;20500;-74
2022/01/04 10:51:17;;;;;;;6.35;1.17;;;7.40;99.90;;;;;;5057294;28;20044;-74
2022/01/04 10:53:45;;;;;;;6.32;1.00;;;7.30;99.90;;;;;;5057060;28;20041;-73
2022/01/04 10:56:13;;;;;;;5.72;0.80;;;7.30;99.90;;;;;;5057179;28;20128;-74
2022/01/04 10:58:45;;;;;;;8.02;0.90;;;7.30;99.90;;;;;;5056829;28;20068;-74
2022/01/04 11:01:14;;;;;;;8.00;1.13;;;7.30;99.90;;;;;;5056913;28;20093;-74
2022/01/04 11:03:46;;;;;;;6.22;1.00;;;7.30;99.90;;;;;;5040602;28;20029;-74
2022/01/04 11:06:24;;;;;;;7.53;1.15;;;7.20;99.90;;;;;;5056781;28;20036;-73
2022/01/04 11:08:50;;;;;;;10.10;1.52;;;7.20;99.90;;;;;;5056713;28;20048;-73
2022/01/04 11:11:16;;;;;;;6.50;1.10;;;7.10;99.90;;;;;;5056635;28;20055;-73
2022/01/04 11:13:42;;;;;;;6.18;1.13;;;7.10;99.90;;;;;;5056873;28;20036;-74
2022/01/04 11:16:09;;;;;;;6.03;1.52;;;7.10;99.90;;;;;;5056636;28;20082;-74
2022/01/04 11:18:37;;;;;;;2.15;0.50;;;7.10;99.90;;;;;;5038941;28;20036;-74
2022/01/04 11:21:04;;;;;;;3.92;0.40;;;7.10;99.90;;;;;;5056534;28;20043;-73
2022/01/04 11:23:32;;;;;;;5.55;0.95;;;7.00;99.90;;;;;;5056413;28;20431;-73
2022/01/04 11:26:00;;;;;;;3.67;0.60;;;7.00;99.90;;;;;;5039726;28;20040;-73
2022/01/04 11:28:26;;;;;;;2.53;0.77;;;7.00;99.90;;;;;;5056249;28;20044;-73
2022/01/04 11:31:17;;;;;;;5.40;0.88;;;7.00;99.90;;;;;;5056216;28;20583;-73
2022/01/04 11:34:10;;;;;;;5.80;1.13;;;7.00;99.90;;;;;;5056210;28;20048;-73
2022/01/04 11:36:43;;;;;;;3.58;0.63;;;6.90;99.90;;;;;;5056149;28;20040;-74
2022/01/04 11:39:35;;;;;;;4.35;0.82;;;6.90;99.90;;;;;;5056383;28;20036;-73
2022/01/04 11:42:10;;;;;;;3.08;0.70;;;6.90;99.90;;;;;;5056113;28;20044;-73
2022/01/04 11:44:47;;;;;;;2.80;0.90;;;6.90;99.90;;;;;;5039408;28;20033;-74
2022/01/04 11:47:15;;;;;;;7.38;1.02;;;6.90;99.90;;;;;;5056012;28;20045;-73
2022/01/04 11:50:13;;;;;;;4.60;0.65;;;6.80;99.90;;;;;;5055948;28;20036;-74
2022/01/04 11:52:56;;;;;;;2.70;0.95;;;6.80;99.90;;;;;;5039365;28;20068;-73
2022/01/04 11:55:22;;;;;;;6.53;1.42;;;6.80;99.90;;;;;;5055924;28;20086;-74
2022/01/04 11:57:49;;;;;;;6.28;0.65;;;6.80;99.90;;;;;;5039422;28;20454;-74
2022/01/04 12:00:37;;;;;;;3.25;0.73;;;6.80;99.90;;;;;;5055630;28;20047;-74
2022/01/04 12:03:19;;;;;;;7.57;1.10;;;6.80;99.90;;;;;;5055927;28;20416;-74
2022/01/04 12:05:54;;;;;;;4.70;0.60;;;6.80;99.90;;;;;;5039434;28;20110;-74
2022/01/04 12:08:24;;;;;;;3.67;0.50;;;6.70;99.90;;;;;;5055833;28;20126;-73
2022/01/04 12:10:51;;;;;;;3.88;0.70;;;6.60;99.90;;;;;;5056057;28;20051;-73
2022/01/04 12:13:25;;;;;;;7.75;0.90;;;6.50;99.90;;;;;;5038776;28;20036;-73
2022/01/04 12:15:57;;;;;;;6.07;1.00;;;6.50;99.90;;;;;;5055525;28;20048;-73
2022/01/04 12:18:23;;;;;;;5.87;1.30;;;6.40;99.90;;;;;;5055768;28;20044;-73
2022/01/04 12:20:57;;;;;;;4.85;1.08;;;6.40;99.90;;;;;;5055412;28;20036;-73
2022/01/04 12:23:25;;;;;;;5.63;0.68;;;6.30;99.90;;;;;;5055570;28;20045;-73
2022/01/04 12:26:05;;;;;;;7.53;0.93;;;6.30;99.90;;;;;;5055334;28;20072;-73
2022/01/04 12:28:55;;;;;;;5.03;0.70;;;6.30;99.90;;;;;;5055332;28;20473;-73
2022/01/04 12:31:23;;;;;;;5.03;0.70;;;6.40;99.90;;;;;;5055792;28;20048;-73
2022/01/04 12:34:25;;;;;;;3.92;0.80;;;6.40;99.90;;;;;;5055256;28;20040;-72
2022/01/04 12:36:51;;;;;;;6.28;0.77;;;6.50;99.90;;;;;;5038687;28;20053;-73
2022/01/04 12:39:19;;;;;;;5.65;0.73;;;6.50;99.90;;;;;;5055108;28;20097;-73
2022/01/04 12:41:47;;;;;;;5.55;0.80;;;6.60;99.90;;;;;;5038515;28;20076;-73
2022/01/04 12:44:21;;;;;;;3.63;1.10;;;6.80;99.90;;;;;;5055147;28;20078;-73
2022/01/04 12:46:47;;;;;;;3.47;0.60;;;7.20;99.90;;;;;;5055150;28;20052;-73
2022/01/04 12:49:19;;;;;;;7.25;1.00;;;7.60;99.90;;;;;;5054975;28;20051;-73
2022/01/04 12:51:47;;;;;;;6.07;0.85;;;7.80;99.90;;;;;;5054965;28;20036;-73
2022/01/04 12:54:16;;;;;;;7.90;1.05;;;7.70;99.90;;;;;;5055014;28;20044;-73